Time;durP1;ratioP1;P1;durP2;ratioP2;P2;SDS_P1;SDS_P2;PMS_P1;PMS_P2;Temp;Humidity;BMP_temperature;BMP_pressure;BME280_temperature;BME280_humidity;BME280_pressure;Samples;Min_cycle;Max_cycle;Signal;HPM_P1;HPM_P2
2021/12/17 00:00:41;;;;;;;23.80;15.85;;;6.00;99.90;;;;;;5028277;28;20283;-73
2021/12/17 00:03:10;;;;;;;25.92;17.55;;;5.80;99.90;;;;;;5031633;28;20185;-73
2021/12/17 00:05:50;;;;;;;23.52;16.30;;;5.80;99.90;;;;;;5022648;28;20544;-73
2021/12/17 00:08:18;;;;;;;25.27;16.92;;;5.70;99.90;;;;;;5027394;28;20284;-73
2021/12/17 00:10:45;;;;;;;25.27;17.02;;;5.70;99.90;;;;;;5028260;28;20187;-73
2021/12/17 00:13:11;;;;;;;25.15;17.40;;;5.70;99.90;;;;;;5028684;28;20181;-73
2021/12/17 00:15:38;;;;;;;25.95;17.48;;;5.70;99.90;;;;;;5029062;28;20187;-73
2021/12/17 00:18:32;;;;;;;28.05;17.77;;;5.70;99.90;;;;;;5030793;28;20859;-73
2021/12/17 00:48:35;;;;;;;25.50;17.80;;;4.80;99.90;;;;;;5020080;28;20203;-73
2021/12/17 00:53:34;;;;;;;28.65;17.92;;;4.50;99.90;;;;;;5028755;28;20188;-73
2021/12/17 00:56:00;;;;;;;27.40;18.48;;;4.50;99.90;;;;;;5029284;28;20195;-73
2021/12/17 00:58:25;;;;;;;26.08;16.52;;;4.40;99.90;;;;;;5029625;28;20553;-73
2021/12/17 01:00:51;;;;;;;28.33;16.40;;;4.30;99.90;;;;;;5027676;28;20188;-73
2021/12/17 01:03:17;;;;;;;29.35;18.05;;;4.30;99.90;;;;;;5030235;28;20181;-73
2021/12/17 01:05:43;;;;;;;31.25;18.15;;;4.20;99.90;;;;;;5027419;28;20207;-73
2021/12/17 01:08:09;;;;;;;28.58;17.23;;;4.10;99.90;;;;;;5028709;28;20227;-73
2021/12/17 01:10:54;;;;;;;28.15;17.20;;;4.00;99.90;;;;;;5027401;28;20644;-73
2021/12/17 01:13:20;;;;;;;27.92;17.63;;;3.90;99.90;;;;;;5026549;28;20188;-73
2021/12/17 01:15:46;;;;;;;27.10;17.77;;;3.80;99.90;;;;;;5026756;28;20261;-72
2021/12/17 01:18:17;;;;;;;30.98;18.48;;;3.70;99.90;;;;;;5029518;28;20775;-73
2021/12/17 01:36:30;;;;;;;27.90;16.80;;;4.00;99.90;;;;;;5030554;28;20196;-73
2021/12/17 01:44:25;;;;;;;25.27;15.98;;;3.80;99.90;;;;;;5023804;28;20204;-73
2021/12/17 01:46:53;;;;;;;25.95;16.65;;;3.70;99.90;;;;;;5033743;28;20177;-72
2021/12/17 02:00:29;;;;;;;27.52;16.98;;;3.40;99.90;;;;;;5031666;28;20227;-73
2021/12/17 02:02:58;;;;;;;30.38;16.73;;;3.50;99.90;;;;;;5030858;28;20188;-73
2021/12/17 02:05:23;;;;;;;33.72;17.35;;;3.50;99.90;;;;;;5031238;28;20282;-73
2021/12/17 02:07:53;;;;;;;146.90;23.43;;;3.50;99.90;;;;;;5025401;28;20229;-73
2021/12/17 02:11:30;;;;;;;64.07;18.90;;;3.50;99.90;;;;;;5030068;28;20270;-74
2021/12/17 02:32:07;;;;;;;213.77;26.10;;;3.90;99.90;;;;;;5033147;28;20176;-73
2021/12/17 02:37:16;;;;;;;72.85;16.63;;;4.00;99.90;;;;;;5033404;28;20188;-73
2021/12/17 02:45:32;;;;;;;119.82;18.90;;;4.00;99.90;;;;;;5039868;28;20672;-73
2021/12/17 02:45:35;;;;;;;57.43;13.20;;;3.90;99.90;;;;;;5026592;28;20212;-73
2021/12/17 02:48:10;;;;;;;38.43;11.97;;;3.80;99.90;;;;;;5031020;28;20180;-73
2021/12/17 02:50:39;;;;;;;75.07;13.52;;;3.80;99.90;;;;;;5036367;28;20674;-73
2021/12/17 02:53:08;;;;;;;60.23;11.60;;;3.60;99.90;;;;;;5030846;28;20207;-73
2021/12/17 02:55:37;;;;;;;39.57;11.03;;;3.70;99.90;;;;;;5034011;28;20290;-73
2021/12/17 02:58:04;;;;;;;144.00;18.50;;;3.70;99.90;;;;;;5030563;28;20197;-72
2021/12/17 03:00:31;;;;;;;56.80;12.20;;;3.50;99.90;;;;;;5021696;28;20197;-74
2021/12/17 03:02:58;;;;;;;66.23;12.93;;;3.60;99.90;;;;;;5029332;28;20239;-73
2021/12/17 03:05:26;;;;;;;34.50;10.60;;;3.60;99.90;;;;;;5029450;28;20208;-73
2021/12/17 03:07:52;;;;;;;18.87;9.33;;;3.60;99.90;;;;;;5027872;28;20663;-72
2021/12/17 03:10:18;;;;;;;45.40;11.37;;;3.70;99.90;;;;;;5028812;28;20180;-73
2021/12/17 03:12:51;;;;;;;29.60;10.23;;;3.70;99.90;;;;;;5024296;28;20199;-73
2021/12/17 03:26:20;;;;;;;23.20;10.47;;;3.40;99.90;;;;;;5025675;28;20259;-73
2021/12/17 03:28:48;;;;;;;26.27;11.27;;;3.40;99.90;;;;;;5024891;28;20217;-71
2021/12/17 03:31:15;;;;;;;34.53;11.00;;;3.30;99.90;;;;;;5022643;28;20235;-72
2021/12/17 03:33:43;;;;;;;35.87;11.07;;;3.20;99.90;;;;;;5029856;28;20250;-72
2021/12/17 03:36:11;;;;;;;26.13;10.50;;;3.10;99.90;;;;;;5026082;28;20192;-73
2021/12/17 03:38:39;;;;;;;56.60;13.07;;;3.10;99.90;;;;;;5028036;28;20254;-72
2021/12/17 03:41:35;;;;;;;22.53;11.33;;;3.10;99.90;;;;;;5029805;28;20210;-72
2021/12/17 03:43:54;;;;;;;21.03;10.77;;;3.10;99.90;;;;;;5031345;28;20227;-73
2021/12/17 03:46:20;;;;;;;22.23;9.77;;;3.10;99.90;;;;;;5030333;28;20208;-73
2021/12/17 03:48:46;;;;;;;17.83;8.87;;;3.20;99.90;;;;;;5028607;28;20200;-73
2021/12/17 03:51:16;;;;;;;21.13;9.43;;;3.40;99.90;;;;;;5029788;28;20323;-73
2021/12/17 03:53:47;;;;;;;29.03;9.80;;;3.40;99.90;;;;;;5032377;28;20276;-73
2021/12/17 03:56:13;;;;;;;11.97;9.60;;;3.40;99.90;;;;;;5027202;28;20191;-72
2021/12/17 03:58:38;;;;;;;15.93;8.93;;;3.50;99.90;;;;;;5030745;28;20200;-73
2021/12/17 04:01:04;;;;;;;46.97;11.47;;;3.60;99.90;;;;;;5028900;28;20493;-73
2021/12/17 04:03:37;;;;;;;27.70;10.17;;;3.50;99.90;;;;;;5026898;28;20216;-71
2021/12/17 04:06:03;;;;;;;25.27;11.07;;;3.30;99.90;;;;;;5021121;28;20535;-72
2021/12/17 04:08:30;;;;;;;21.03;8.93;;;3.20;99.90;;;;;;5028194;28;20207;-72
2021/12/17 04:11:03;;;;;;;28.13;10.20;;;3.30;99.90;;;;;;5024269;28;20169;-72
2021/12/17 04:13:34;;;;;;;17.07;9.70;;;3.30;99.90;;;;;;5022263;28;20180;-73
2021/12/17 04:16:08;;;;;;;12.37;9.80;;;3.40;99.90;;;;;;5026422;28;20195;-73
2021/12/17 04:18:40;;;;;;;25.77;10.97;;;3.40;99.90;;;;;;5022302;28;20610;-72
2021/12/17 04:21:13;;;;;;;44.23;11.63;;;3.50;99.90;;;;;;5026619;28;20269;-72
2021/12/17 04:23:39;;;;;;;30.77;11.23;;;3.50;99.90;;;;;;5028633;28;20322;-73
2021/12/17 04:26:05;;;;;;;37.00;10.90;;;3.50;99.90;;;;;;5039813;28;20184;-73
2021/12/17 04:28:31;;;;;;;23.03;10.33;;;3.60;99.90;;;;;;5023304;28;20607;-73
2021/12/17 04:30:56;;;;;;;25.33;9.93;;;3.60;99.90;;;;;;5022948;28;20213;-72
2021/12/17 04:33:22;;;;;;;27.92;11.52;;;3.60;99.90;;;;;;5023315;28;20200;-73
2021/12/17 04:35:47;;;;;;;20.07;11.03;;;3.60;99.90;;;;;;5025223;28;20662;-72
2021/12/17 04:38:15;;;;;;;21.00;8.87;;;3.60;99.90;;;;;;5023389;28;20200;-72
2021/12/17 04:40:43;;;;;;;20.07;10.07;;;3.60;99.90;;;;;;5025777;28;20177;-72
2021/12/17 04:45:57;;;;;;;24.53;9.23;;;3.60;99.90;;;;;;5031654;28;20176;-72
2021/12/17 04:59:19;;;;;;;28.90;10.63;;;3.50;99.90;;;;;;5020540;28;20279;-73
2021/12/17 05:01:44;;;;;;;23.77;9.83;;;3.50;99.90;;;;;;5032316;28;20181;-73
2021/12/17 05:04:10;;;;;;;22.47;10.70;;;3.50;99.90;;;;;;5031801;28;20200;-71
2021/12/17 05:06:36;;;;;;;43.50;11.50;;;3.60;99.90;;;;;;5032139;28;20818;-73
2021/12/17 05:09:11;;;;;;;16.83;9.00;;;3.50;99.90;;;;;;5030049;28;20235;-73
2021/12/17 05:22:09;;;;;;;32.87;11.70;;;3.30;99.90;;;;;;5036167;28;20184;-73
2021/12/17 05:24:35;;;;;;;55.83;13.53;;;3.20;99.90;;;;;;5035650;28;20196;-73
2021/12/17 05:27:01;;;;;;;32.10;12.90;;;3.20;99.90;;;;;;5027524;28;20783;-73
2021/12/17 05:29:27;;;;;;;35.30;12.20;;;3.20;99.90;;;;;;5025100;28;20223;-73
2021/12/17 05:31:53;;;;;;;32.53;11.57;;;3.20;99.90;;;;;;5027309;28;20213;-73
2021/12/17 05:34:18;;;;;;;29.77;11.53;;;3.30;99.90;;;;;;5015861;28;20182;-73
2021/12/17 05:36:44;;;;;;;18.83;10.93;;;3.30;99.90;;;;;;5015907;28;20622;-73
2021/12/17 05:39:10;;;;;;;20.07;10.53;;;3.30;99.90;;;;;;5022529;28;20205;-73
2021/12/17 05:41:35;;;;;;;16.93;11.70;;;3.30;99.90;;;;;;5021726;28;20716;-72
2021/12/17 05:44:01;;;;;;;25.45;11.75;;;3.50;99.90;;;;;;5014296;28;20205;-72
2021/12/17 05:46:49;;;;;;;17.10;10.90;;;3.50;99.90;;;;;;5015240;28;20656;-73
2021/12/17 05:49:20;;;;;;;35.87;12.00;;;3.60;99.90;;;;;;5027299;28;20197;-74
2021/12/17 05:51:46;;;;;;;25.90;12.20;;;3.50;99.90;;;;;;5053967;28;20176;-72
2021/12/17 05:54:14;;;;;;;29.10;12.50;;;3.40;99.90;;;;;;5041879;28;20705;-73
2021/12/17 05:56:40;;;;;;;18.50;10.37;;;3.30;99.90;;;;;;5028804;28;20196;-73
2021/12/17 05:59:06;;;;;;;26.87;10.63;;;3.30;99.90;;;;;;5034285;28;20307;-73
2021/12/17 06:01:33;;;;;;;14.67;9.53;;;3.20;99.90;;;;;;5034243;28;20196;-72
2021/12/17 06:03:58;;;;;;;21.77;10.20;;;3.20;99.90;;;;;;5030389;28;20220;-73
2021/12/17 06:06:38;;;;;;;26.03;9.23;;;3.20;99.90;;;;;;5027399;28;20177;-73
2021/12/17 06:09:08;;;;;;;27.73;8.70;;;3.10;99.90;;;;;;5034536;28;20208;-72
2021/12/17 06:11:35;;;;;;;27.83;10.20;;;3.10;99.90;;;;;;5034773;28;20258;-73
2021/12/17 06:14:02;;;;;;;16.50;9.70;;;3.10;99.90;;;;;;5029821;28;20196;-74
2021/12/17 06:16:27;;;;;;;22.00;9.60;;;3.10;99.90;;;;;;5033304;28;20565;-74
2021/12/17 06:18:54;;;;;;;21.70;9.27;;;3.10;99.90;;;;;;5034013;28;20282;-70
2021/12/17 06:21:20;;;;;;;36.70;10.30;;;3.10;99.90;;;;;;5034596;28;20219;-70
2021/12/17 06:23:46;;;;;;;20.73;9.77;;;3.10;99.90;;;;;;5026114;28;20236;-71
2021/12/17 06:26:11;;;;;;;30.20;9.87;;;3.00;99.90;;;;;;5025459;28;20173;-72
2021/12/17 06:28:37;;;;;;;38.50;10.13;;;2.90;99.90;;;;;;5033787;28;20193;-72
2021/12/17 06:31:03;;;;;;;28.20;9.50;;;2.80;99.90;;;;;;5033093;28;20589;-71
2021/12/17 06:33:28;;;;;;;22.83;9.27;;;2.80;99.90;;;;;;5031755;28;20620;-71
2021/12/17 06:35:54;;;;;;;17.10;8.80;;;2.80;99.90;;;;;;5047321;28;20180;-72
2021/12/17 06:38:20;;;;;;;15.43;7.83;;;2.90;99.90;;;;;;5033455;28;20196;-71
2021/12/17 06:40:48;;;;;;;22.10;7.77;;;3.00;99.90;;;;;;5034530;28;20235;-72
2021/12/17 06:43:15;;;;;;;31.40;10.10;;;2.90;99.90;;;;;;5026165;28;20204;-72
2021/12/17 06:48:12;;;;;;;20.00;8.50;;;2.70;99.90;;;;;;5032997;28;20193;-72
2021/12/17 06:59:06;;;;;;;26.80;9.80;;;2.70;99.90;;;;;;5033214;28;20204;-70
2021/12/17 07:17:48;;;;;;;53.63;9.90;;;2.50;99.90;;;;;;5031139;28;20191;-72
2021/12/17 07:23:08;;;;;;;44.70;7.73;;;2.20;99.90;;;;;;5033673;28;20203;-73
2021/12/17 07:33:57;;;;;;;30.33;6.93;;;2.50;99.90;;;;;;5033309;28;20183;-72
2021/12/17 07:36:23;;;;;;;16.07;6.40;;;2.50;99.90;;;;;;5031498;28;20659;-72
2021/12/17 07:38:50;;;;;;;23.07;6.80;;;2.60;99.90;;;;;;5031924;28;20346;-70
2021/12/17 07:41:17;;;;;;;42.30;8.13;;;2.70;99.90;;;;;;5031225;28;20211;-71
2021/12/17 07:43:54;;;;;;;30.57;7.53;;;2.70;99.90;;;;;;5031698;28;20730;-71
2021/12/17 07:46:20;;;;;;;68.80;9.13;;;2.60;99.90;;;;;;5035417;28;20172;-73
2021/12/17 07:48:46;;;;;;;36.40;8.07;;;2.40;99.90;;;;;;5037196;28;20326;-71
2021/12/17 07:51:14;;;;;;;19.70;6.80;;;2.30;99.90;;;;;;5047381;28;20176;-72
2021/12/17 07:53:40;;;;;;;33.67;8.00;;;2.30;99.90;;;;;;5025127;28;20178;-72
2021/12/17 07:56:09;;;;;;;19.23;6.40;;;2.40;99.90;;;;;;5012320;28;20219;-72
2021/12/17 07:58:35;;;;;;;31.97;8.17;;;2.60;99.90;;;;;;5023411;28;20589;-72
2021/12/17 08:01:01;;;;;;;45.77;9.93;;;2.70;99.90;;;;;;5031291;28;20720;-68
2021/12/17 08:03:27;;;;;;;21.37;6.43;;;2.80;99.90;;;;;;5031791;28;20181;-72
2021/12/17 08:05:53;;;;;;;23.33;6.63;;;2.70;99.90;;;;;;5032221;28;20232;-71
2021/12/17 08:08:19;;;;;;;21.27;6.43;;;2.60;99.90;;;;;;5030761;28;20211;-69
2021/12/17 08:10:47;;;;;;;33.90;7.63;;;2.70;99.90;;;;;;5031784;28;20260;-72
2021/12/17 08:13:20;;;;;;;36.00;7.77;;;2.80;99.90;;;;;;5031984;28;20184;-70
2021/12/17 08:16:00;;;;;;;19.77;7.47;;;2.80;99.90;;;;;;5028723;28;20181;-70
2021/12/17 08:26:41;;;;;;;32.70;7.83;;;2.70;99.90;;;;;;5015582;28;20185;-71
2021/12/17 08:31:52;;;;;;;21.30;7.60;;;2.70;99.90;;;;;;5012431;28;20640;-72
2021/12/17 08:34:19;;;;;;;13.93;6.90;;;2.70;99.90;;;;;;5012493;28;20228;-72
2021/12/17 08:36:44;;;;;;;28.13;7.10;;;2.60;99.90;;;;;;5032030;28;20601;-72
2021/12/17 08:39:10;;;;;;;18.27;6.87;;;2.50;99.90;;;;;;5031842;28;20201;-72
2021/12/17 08:41:38;;;;;;;27.97;7.03;;;2.40;99.90;;;;;;5031673;28;20258;-72
2021/12/17 08:44:04;;;;;;;20.33;6.10;;;2.50;99.90;;;;;;5024011;28;20200;-71
2021/12/17 08:46:30;;;;;;;39.43;8.50;;;2.60;99.90;;;;;;5031682;28;20271;-72
2021/12/17 08:48:55;;;;;;;23.60;5.87;;;2.60;99.90;;;;;;5031365;28;20212;-72
2021/12/17 08:51:21;;;;;;;25.83;6.50;;;2.70;99.90;;;;;;5030862;28;20659;-72
2021/12/17 08:53:47;;;;;;;27.07;7.67;;;2.60;99.90;;;;;;5024888;28;20267;-72
2021/12/17 08:56:18;;;;;;;35.63;7.37;;;2.50;99.90;;;;;;5029101;28;20192;-74
2021/12/17 08:58:45;;;;;;;27.37;6.83;;;2.40;99.90;;;;;;5030133;28;20361;-74
2021/12/17 09:01:10;;;;;;;20.70;7.83;;;2.50;99.90;;;;;;5035582;28;20250;-74
2021/12/17 09:03:36;;;;;;;39.27;9.97;;;2.60;99.90;;;;;;5037235;28;20176;-75
2021/12/17 09:06:02;;;;;;;36.03;8.43;;;2.60;99.90;;;;;;5036159;28;20186;-78
2021/12/17 09:08:28;;;;;;;24.27;7.90;;;2.50;99.90;;;;;;5048073;28;20691;-78
2021/12/17 09:10:57;;;;;;;24.77;7.20;;;2.50;99.90;;;;;;5035205;28;20173;-79
2021/12/17 09:13:27;;;;;;;21.90;7.53;;;2.50;99.90;;;;;;5035558;28;20188;-79
2021/12/17 09:15:58;;;;;;;10.87;6.13;;;2.50;99.90;;;;;;5030999;28;20185;-79
2021/12/17 09:18:25;;;;;;;15.03;6.20;;;2.60;99.90;;;;;;5031150;28;20201;-79
2021/12/17 09:20:51;;;;;;;17.27;6.67;;;2.60;99.90;;;;;;5048574;28;20184;-79
2021/12/17 09:23:18;;;;;;;28.63;8.10;;;2.60;99.90;;;;;;5033587;28;20176;-79
2021/12/17 09:25:44;;;;;;;34.80;7.90;;;2.60;99.90;;;;;;5033703;28;20180;-79
2021/12/17 09:28:10;;;;;;;31.53;6.77;;;2.50;99.90;;;;;;5035009;28;20568;-75
2021/12/17 09:30:36;;;;;;;17.03;6.53;;;2.60;99.90;;;;;;5034707;28;20655;-75
2021/12/17 09:33:03;;;;;;;24.77;7.40;;;2.70;99.90;;;;;;5034200;28;20168;-75
2021/12/17 09:35:29;;;;;;;41.73;7.33;;;2.70;99.90;;;;;;5034636;28;20899;-75
2021/12/17 09:37:55;;;;;;;27.50;7.23;;;2.70;99.90;;;;;;5034926;28;20222;-75
2021/12/17 09:40:21;;;;;;;42.00;7.50;;;2.90;99.90;;;;;;5035721;28;20180;-75
2021/12/17 09:42:47;;;;;;;31.40;7.00;;;3.00;99.90;;;;;;5033160;28;20229;-76
2021/12/17 09:45:14;;;;;;;10.67;5.83;;;3.00;99.90;;;;;;5035252;28;20200;-76
2021/12/17 09:47:41;;;;;;;10.63;6.33;;;3.00;99.90;;;;;;5035085;28;20177;-76
2021/12/17 09:50:09;;;;;;;20.27;7.00;;;3.20;99.90;;;;;;5038005;28;20199;-76
2021/12/17 09:52:35;;;;;;;12.07;7.00;;;3.30;99.90;;;;;;5017877;28;20185;-76
2021/12/17 09:55:02;;;;;;;23.17;7.23;;;3.30;99.90;;;;;;5029216;28;20202;-76
2021/12/17 09:57:30;;;;;;;9.97;6.10;;;3.20;99.90;;;;;;5034566;28;20180;-76
2021/12/17 09:59:56;;;;;;;13.75;6.70;;;3.30;99.90;;;;;;5033238;28;20746;-77
2021/12/17 10:02:21;;;;;;;10.05;6.28;;;3.60;99.90;;;;;;5027740;28;20256;-76
2021/12/17 10:04:47;;;;;;;17.92;6.15;;;3.80;99.90;;;;;;5033788;28;20212;-76
2021/12/17 10:07:23;;;;;;;15.95;5.93;;;3.80;99.90;;;;;;5033670;28;20223;-76
2021/12/17 10:09:51;;;;;;;20.63;7.63;;;3.80;99.90;;;;;;5018794;28;20208;-76
2021/12/17 10:12:21;;;;;;;10.90;5.88;;;3.70;99.90;;;;;;5024132;28;20721;-76
2021/12/17 10:15:07;;;;;;;11.05;6.78;;;3.90;99.90;;;;;;5033007;28;20185;-74
2021/12/17 10:17:34;;;;;;;8.27;6.50;;;4.10;99.90;;;;;;5027108;28;20279;-75
2021/12/17 10:20:01;;;;;;;8.43;7.22;;;4.10;99.90;;;;;;5019184;28;20204;-76
2021/12/17 10:22:29;;;;;;;10.55;7.55;;;4.00;99.90;;;;;;5034380;28;20173;-76
2021/12/17 10:25:08;;;;;;;9.63;8.20;;;3.90;99.90;;;;;;5033393;28;20199;-76
2021/12/17 10:27:36;;;;;;;12.38;7.25;;;3.90;99.90;;;;;;5034919;28;20172;-76
2021/12/17 10:30:13;;;;;;;10.15;7.65;;;4.00;99.90;;;;;;5025686;28;20292;-76
2021/12/17 10:32:44;;;;;;;9.48;7.30;;;4.00;99.90;;;;;;5032517;28;20554;-75
2021/12/17 10:35:17;;;;;;;11.50;7.47;;;4.30;99.90;;;;;;5033792;28;20173;-77
2021/12/17 10:38:04;;;;;;;8.18;6.97;;;4.40;99.90;;;;;;5029883;28;20181;-75
2021/12/17 10:40:37;;;;;;;6.90;6.25;;;4.30;99.90;;;;;;5033641;28;20185;-76
2021/12/17 10:43:17;;;;;;;9.77;7.70;;;4.50;99.90;;;;;;5032964;28;20180;-76
2021/12/17 10:45:57;;;;;;;7.20;6.47;;;4.80;99.90;;;;;;5032745;28;20208;-75
2021/12/17 10:48:29;;;;;;;8.82;7.32;;;4.80;99.90;;;;;;5030533;28;20215;-76
2021/12/17 10:51:20;;;;;;;8.50;7.53;;;5.10;99.90;;;;;;5034077;28;20172;-73
2021/12/17 10:53:53;;;;;;;9.30;7.97;;;5.00;99.90;;;;;;5024796;28;20184;-74
2021/12/17 10:56:33;;;;;;;8.38;7.40;;;5.00;99.90;;;;;;5025651;28;20542;-74
2021/12/17 10:59:10;;;;;;;8.73;7.35;;;4.80;99.90;;;;;;5033661;28;20604;-74
2021/12/17 11:01:49;;;;;;;6.90;6.20;;;4.70;99.90;;;;;;5033089;28;20188;-74
2021/12/17 11:04:32;;;;;;;9.77;8.13;;;4.70;99.90;;;;;;5029481;28;20228;-74
2021/12/17 11:07:05;;;;;;;12.88;8.88;;;4.50;99.90;;;;;;5033101;28;20210;-73
2021/12/17 11:09:38;;;;;;;9.85;6.78;;;4.50;99.90;;;;;;5032884;28;20196;-74
2021/12/17 11:12:41;;;;;;;11.75;8.05;;;4.40;99.90;;;;;;5032276;28;20176;-72
2021/12/17 11:15:18;;;;;;;10.10;8.38;;;4.40;99.90;;;;;;5032128;28;20192;-72
2021/12/17 11:17:49;;;;;;;10.25;7.95;;;4.30;99.90;;;;;;5032601;28;20231;-73
2021/12/17 11:20:18;;;;;;;10.88;8.65;;;4.30;99.90;;;;;;5027508;28;20207;-72
2021/12/17 11:22:46;;;;;;;11.70;8.93;;;4.30;99.90;;;;;;5021188;28;20833;-72
2021/12/17 11:25:13;;;;;;;17.00;8.82;;;4.20;99.90;;;;;;5029912;28;20209;-74
2021/12/17 11:27:38;;;;;;;13.27;8.82;;;4.00;99.90;;;;;;5032855;28;20173;-73
2021/12/17 11:30:19;;;;;;;13.52;8.90;;;3.90;99.90;;;;;;5031727;28;20246;-72
2021/12/17 11:32:46;;;;;;;15.85;9.32;;;3.90;99.90;;;;;;5031956;28;20591;-72
2021/12/17 11:35:15;;;;;;;14.27;9.02;;;4.00;99.90;;;;;;5028016;28;20250;-74
2021/12/17 11:37:43;;;;;;;12.30;9.18;;;4.00;99.90;;;;;;5032849;28;20556;-73
2021/12/17 11:40:31;;;;;;;12.02;8.98;;;4.00;99.90;;;;;;5032646;28;20207;-74
2021/12/17 11:43:23;;;;;;;11.38;8.43;;;4.00;99.90;;;;;;5031141;28;20200;-74
2021/12/17 11:46:01;;;;;;;13.68;9.70;;;4.00;99.90;;;;;;5030826;28;20184;-72
2021/12/17 11:48:30;;;;;;;11.52;9.05;;;4.00;99.90;;;;;;5031663;28;20595;-72
2021/12/17 11:51:16;;;;;;;12.80;9.63;;;4.10;99.90;;;;;;5034713;28;20525;-73
2021/12/17 11:54:26;;;;;;;12.43;9.18;;;4.30;99.90;;;;;;5030063;28;20180;-72
2021/12/17 11:56:54;;;;;;;12.45;9.27;;;4.30;99.90;;;;;;5027867;28;20590;-72
2021/12/17 11:59:26;;;;;;;13.10;10.05;;;4.40;99.90;;;;;;5031746;28;20614;-73
2021/12/17 12:02:16;;;;;;;15.13;10.88;;;4.20;99.90;;;;;;5027896;28;20181;-73
2021/12/17 12:04:57;;;;;;;15.87;11.97;;;4.00;99.90;;;;;;5030467;28;20200;-72
2021/12/17 12:07:23;;;;;;;14.98;10.10;;;4.00;99.90;;;;;;5032206;28;20250;-71
2021/12/17 12:10:08;;;;;;;16.05;10.27;;;4.20;99.90;;;;;;5030716;28;20200;-72
2021/12/17 12:12:42;;;;;;;16.92;11.02;;;4.30;99.90;;;;;;5031810;28;20181;-73
2021/12/17 12:15:30;;;;;;;17.05;11.07;;;4.30;99.90;;;;;;5030502;28;20269;-72
2021/12/17 12:18:06;;;;;;;17.30;11.00;;;4.30;99.90;;;;;;5029916;28;20176;-73
2021/12/17 12:20:51;;;;;;;13.90;10.23;;;4.40;99.90;;;;;;5015743;28;20561;-73
2021/12/17 12:23:29;;;;;;;13.57;9.77;;;4.50;99.90;;;;;;5031643;28;20241;-73
2021/12/17 12:26:11;;;;;;;16.75;10.88;;;4.50;99.90;;;;;;5028277;28;20176;-74
2021/12/17 12:31:36;;;;;;;17.27;11.13;;;4.50;99.90;;;;;;5030366;28;20655;-73
2021/12/17 12:34:02;;;;;;;17.23;11.05;;;4.50;99.90;;;;;;5030109;28;20235;-73
2021/12/17 12:36:56;;;;;;;15.88;10.57;;;4.40;99.90;;;;;;5022153;28;20221;-73
2021/12/17 12:39:27;;;;;;;17.00;10.38;;;4.20;99.90;;;;;;5027381;28;20189;-73
2021/12/17 12:41:59;;;;;;;14.00;9.53;;;4.10;99.90;;;;;;5029105;28;20184;-73
2021/12/17 12:44:40;;;;;;;17.38;11.18;;;4.00;99.90;;;;;;5026008;28;20228;-74
2021/12/17 12:47:07;;;;;;;14.37;10.37;;;3.90;99.90;;;;;;5017251;28;20699;-73
2021/12/17 12:50:06;;;;;;;16.67;11.07;;;3.80;99.90;;;;;;5031756;28;20196;-73
2021/12/17 12:52:32;;;;;;;14.43;10.70;;;4.00;99.90;;;;;;5025623;28;20176;-74
2021/12/17 12:55:06;;;;;;;15.33;11.13;;;4.10;99.90;;;;;;5027605;28;20550;-73
2021/12/17 12:57:37;;;;;;;16.77;11.85;;;4.00;99.90;;;;;;5028988;28;20180;-73
2021/12/17 13:00:23;;;;;;;16.40;11.70;;;4.00;99.90;;;;;;5030796;28;20212;-72
2021/12/17 13:03:00;;;;;;;17.53;11.87;;;4.00;99.90;;;;;;5028229;28;20462;-73
2021/12/17 13:05:26;;;;;;;14.88;11.07;;;4.20;99.90;;;;;;5030006;28;20204;-74
2021/12/17 13:07:55;;;;;;;15.82;10.93;;;4.40;99.90;;;;;;5030647;28;20175;-73
2021/12/17 13:10:33;;;;;;;12.55;9.75;;;4.70;99.90;;;;;;5028254;28;20717;-74
2021/12/17 13:13:52;;;;;;;15.02;11.25;;;4.80;99.90;;;;;;5030152;28;20183;-72
2021/12/17 13:24:23;;;;;;;15.07;11.13;;;4.40;99.90;;;;;;5031042;28;20207;-72
2021/12/17 13:27:09;;;;;;;15.55;10.70;;;4.30;99.90;;;;;;5030386;28;20181;-73
2021/12/17 13:29:40;;;;;;;14.95;10.18;;;4.30;99.90;;;;;;5028755;28;20210;-74
2021/12/17 13:32:06;;;;;;;12.65;9.55;;;4.40;99.90;;;;;;5029158;28;20267;-74
2021/12/17 13:34:43;;;;;;;9.05;7.28;;;4.50;99.90;;;;;;5029382;28;20271;-74
2021/12/17 13:37:11;;;;;;;12.95;9.95;;;4.50;99.90;;;;;;5030493;28;20176;-73
2021/12/17 13:39:43;;;;;;;13.30;9.23;;;4.60;99.90;;;;;;5029079;28;20239;-74
2021/12/17 13:42:27;;;;;;;12.50;9.00;;;4.40;99.90;;;;;;5031361;28;20558;-73
2021/12/17 13:44:58;;;;;;;13.50;8.68;;;4.40;99.90;;;;;;5024485;28;20193;-74
2021/12/17 13:47:30;;;;;;;9.80;8.02;;;4.40;99.90;;;;;;5029205;28;20177;-73
2021/12/17 13:50:22;;;;;;;9.73;8.13;;;4.30;99.90;;;;;;5036387;28;20191;-73
2021/12/17 13:52:59;;;;;;;10.55;8.35;;;4.20;99.90;;;;;;5033946;28;20662;-73
2021/12/17 13:55:30;;;;;;;12.50;7.65;;;4.20;99.90;;;;;;5033437;28;20176;-73
2021/12/17 13:57:56;;;;;;;8.73;7.70;;;4.20;99.90;;;;;;5033406;28;20267;-74
2021/12/17 14:00:24;;;;;;;9.60;8.23;;;4.20;99.90;;;;;;5034838;28;20255;-72
2021/12/17 14:02:53;;;;;;;9.23;7.00;;;4.10;99.90;;;;;;5034728;28;20553;-73
2021/12/17 14:05:49;;;;;;;8.45;7.55;;;4.00;99.90;;;;;;5034495;28;20209;-73
2021/12/17 14:08:17;;;;;;;9.15;7.80;;;3.90;99.90;;;;;;5030672;28;20569;-73
2021/12/17 14:10:44;;;;;;;10.85;7.47;;;3.90;99.90;;;;;;5033491;28;20687;-73
2021/12/17 14:13:21;;;;;;;9.93;7.82;;;3.90;99.90;;;;;;5033612;28;20173;-73
2021/12/17 14:15:48;;;;;;;11.70;7.97;;;3.90;99.90;;;;;;5032345;28;20184;-73
2021/12/17 14:18:19;;;;;;;9.00;6.15;;;3.90;99.90;;;;;;5032863;28;20681;-73
2021/12/17 14:20:56;;;;;;;9.13;8.02;;;3.90;99.90;;;;;;5033195;28;20223;-73
2021/12/17 14:23:25;;;;;;;8.55;7.10;;;3.90;99.90;;;;;;5029900;28;20176;-73
2021/12/17 14:25:55;;;;;;;9.18;7.28;;;3.90;99.90;;;;;;5030368;28;20294;-73
2021/12/17 14:28:36;;;;;;;10.27;7.25;;;3.90;99.90;;;;;;5024749;28;20275;-72
2021/12/17 14:31:05;;;;;;;9.02;7.55;;;3.80;99.90;;;;;;5030806;28;20212;-72
2021/12/17 14:33:38;;;;;;;8.05;7.00;;;3.80;99.90;;;;;;5032662;28;20172;-70
2021/12/17 14:36:04;;;;;;;8.57;7.68;;;3.90;99.90;;;;;;5031161;28;20185;-73
2021/12/17 14:39:16;;;;;;;8.38;7.43;;;3.90;99.90;;;;;;5033556;28;20238;-72
2021/12/17 14:41:55;;;;;;;7.77;6.73;;;3.90;99.90;;;;;;5029669;28;20705;-72
2021/12/17 14:47:20;;;;;;;7.47;6.77;;;3.90;99.90;;;;;;5033766;28;20176;-72
2021/12/17 15:00:58;;;;;;;10.18;8.05;;;3.90;99.90;;;;;;5033711;28;20283;-72
2021/12/17 15:03:44;;;;;;;7.65;6.85;;;3.80;99.90;;;;;;5025333;28;20216;-72
2021/12/17 15:06:15;;;;;;;6.10;5.50;;;3.80;99.90;;;;;;5026479;28;20196;-72
2021/12/17 15:08:42;;;;;;;7.67;6.87;;;3.80;99.90;;;;;;5031968;28;20667;-72
2021/12/17 15:11:27;;;;;;;8.30;6.33;;;3.80;99.90;;;;;;5030614;28;20185;-72
2021/12/17 15:13:53;;;;;;;5.20;4.70;;;3.80;99.90;;;;;;5032754;28;20189;-72
2021/12/17 15:16:19;;;;;;;7.43;6.73;;;3.80;99.90;;;;;;5031926;28;20238;-72
2021/12/17 15:18:45;;;;;;;7.57;6.50;;;3.70;99.90;;;;;;5031115;28;20284;-72
2021/12/17 15:21:10;;;;;;;7.17;6.47;;;3.70;99.90;;;;;;5029148;28;20211;-71
2021/12/17 15:23:36;;;;;;;7.53;6.70;;;3.60;99.90;;;;;;5031814;28;20311;-76
2021/12/17 15:26:02;;;;;;;7.38;6.68;;;3.60;99.90;;;;;;5030722;28;20458;-77
2021/12/17 15:28:28;;;;;;;6.93;5.90;;;3.60;99.90;;;;;;5025492;28;20209;-76
2021/12/17 15:31:00;;;;;;;7.47;6.77;;;3.50;99.90;;;;;;5013400;28;20663;-77
2021/12/17 15:33:26;;;;;;;7.70;6.90;;;3.50;99.90;;;;;;5023133;28;20180;-76
2021/12/17 15:35:52;;;;;;;9.07;8.00;;;3.40;99.90;;;;;;5031040;28;20181;-76
2021/12/17 15:38:19;;;;;;;9.43;8.17;;;3.30;99.90;;;;;;5033728;28;20214;-77
2021/12/17 15:40:47;;;;;;;11.07;8.13;;;3.30;99.90;;;;;;5030965;28;20184;-78
2021/12/17 15:43:14;;;;;;;10.03;9.03;;;3.30;99.90;;;;;;5032765;28;20215;-77
2021/12/17 15:45:44;;;;;;;10.67;7.47;;;3.30;99.90;;;;;;5026867;28;20213;-76
2021/12/17 15:48:13;;;;;;;7.70;6.90;;;3.40;99.90;;;;;;5016377;28;20196;-75
2021/12/17 15:50:38;;;;;;;8.43;7.53;;;3.30;99.90;;;;;;5034142;28;20173;-76
2021/12/17 15:53:04;;;;;;;7.93;7.13;;;3.30;99.90;;;;;;5028403;28;20243;-76
2021/12/17 15:55:30;;;;;;;8.17;7.00;;;3.30;99.90;;;;;;5029959;28;20582;-72
2021/12/17 15:57:57;;;;;;;8.40;7.00;;;3.40;99.90;;;;;;5031927;28;20636;-72
2021/12/17 16:00:26;;;;;;;7.53;6.23;;;3.40;99.90;;;;;;5032516;28;20291;-71
2021/12/17 16:02:53;;;;;;;7.53;6.73;;;3.30;99.90;;;;;;5031869;28;20188;-73
2021/12/17 16:05:22;;;;;;;7.07;6.37;;;3.30;99.90;;;;;;5030780;28;20208;-73
2021/12/17 16:07:48;;;;;;;7.97;7.27;;;3.40;99.90;;;;;;5032059;28;20176;-72
2021/12/17 16:21:08;;;;;;;9.77;8.47;;;3.40;99.90;;;;;;5028628;28;20216;-72
2021/12/17 16:23:45;;;;;;;9.70;8.30;;;3.40;99.90;;;;;;5021703;28;20262;-73
2021/12/17 16:26:13;;;;;;;9.23;8.33;;;3.40;99.90;;;;;;5031057;28;20183;-73
2021/12/17 16:28:40;;;;;;;9.00;7.73;;;3.50;99.90;;;;;;5030691;28;20247;-73
2021/12/17 16:31:12;;;;;;;8.70;7.80;;;3.50;99.90;;;;;;5029743;28;20576;-73